createdAt,value
2023-02-19T00:00:36.168Z,10.86
2023-02-19T00:03:39.989Z,10.70
2023-02-19T00:06:43.973Z,10.70
2023-02-19T00:09:47.027Z,10.72
2023-02-19T00:12:49.601Z,10.80
2023-02-19T00:15:52.512Z,10.71
2023-02-19T00:18:56.693Z,10.66
2023-02-19T00:21:59.755Z,10.61
2023-02-19T00:25:02.632Z,10.55
2023-02-19T00:28:05.770Z,10.53
2023-02-19T00:31:18.634Z,10.47
2023-02-19T00:34:21.546Z,10.50
2023-02-19T00:37:24.154Z,10.43
2023-02-19T00:40:27.108Z,10.40
2023-02-19T00:43:29.713Z,10.38
2023-02-19T00:46:41.226Z,10.33
2023-02-19T00:49:44.554Z,10.37
2023-02-19T00:52:47.444Z,10.42
2023-02-19T00:55:50.089Z,10.23
2023-02-19T00:58:53.457Z,10.19
2023-02-19T01:01:56.797Z,10.22
2023-02-19T01:04:59.861Z,10.34
2023-02-19T01:08:02.452Z,10.33
2023-02-19T01:11:07.670Z,10.28
2023-02-19T01:14:10.756Z,10.17
2023-02-19T01:17:13.702Z,10.20
2023-02-19T01:20:16.756Z,10.17
2023-02-19T01:23:19.882Z,10.17
2023-02-19T01:26:25.399Z,10.09
2023-02-19T01:29:28.264Z,10.08
2023-02-19T01:32:31.196Z,9.96
2023-02-19T01:35:34.928Z,10.02
2023-02-19T01:38:37.477Z,10.06
2023-02-19T01:41:41.775Z,10.00
2023-02-19T01:44:47.270Z,10.09
2023-02-19T01:47:56.976Z,9.97
2023-02-19T01:50:59.574Z,9.94
2023-02-19T01:54:09.013Z,9.87
2023-02-19T01:57:19.298Z,9.80
2023-02-19T02:00:24.841Z,9.72
2023-02-19T02:03:30.223Z,9.76
2023-02-19T02:06:52.254Z,9.64
2023-02-19T02:10:15.195Z,9.68
2023-02-19T02:13:18.752Z,9.61
2023-02-19T02:16:49.208Z,9.62
2023-02-19T02:20:20.448Z,9.65
2023-02-19T02:23:51.855Z,9.92
2023-02-19T02:26:57.388Z,9.94
2023-02-19T02:30:21.492Z,9.97
2023-02-19T02:33:42.713Z,10.09
2023-02-19T02:36:49.808Z,10.13
2023-02-19T02:39:54.420Z,10.11
2023-02-19T02:43:00.843Z,10.18
2023-02-19T02:46:04.026Z,10.14
2023-02-19T02:49:12.908Z,10.09
2023-02-19T02:52:38.839Z,10.08
2023-02-19T02:55:44.892Z,9.98
2023-02-19T02:58:50.310Z,10.04
2023-02-19T03:02:14.469Z,9.91
2023-02-19T03:05:41.055Z,10.07
2023-02-19T03:09:08.578Z,9.84
2023-02-19T03:12:36.389Z,9.91
2023-02-19T03:16:03.851Z,9.81
2023-02-19T03:19:19.627Z,9.82
2023-02-19T03:22:30.954Z,9.75
2023-02-19T03:25:55.600Z,9.75
2023-02-19T03:29:19.874Z,9.72
2023-02-19T03:32:36.432Z,9.76
2023-02-19T03:35:47.481Z,9.75
2023-02-19T03:38:57.377Z,9.73
2023-02-19T03:42:02.415Z,9.71
2023-02-19T03:45:47.637Z,9.79
2023-02-19T03:49:01.323Z,9.74
2023-02-19T03:52:26.116Z,9.81
2023-02-19T03:55:45.301Z,9.75
2023-02-19T03:59:02.875Z,9.62
2023-02-19T04:02:15.842Z,9.60
2023-02-19T04:05:25.920Z,9.60
2023-02-19T04:08:31.642Z,9.56
2023-02-19T04:11:36.794Z,9.60
2023-02-19T04:14:49.250Z,9.56
2023-02-19T04:18:00.483Z,9.62
2023-02-19T04:21:05.577Z,9.48
2023-02-19T04:24:16.959Z,9.57
2023-02-19T04:27:19.815Z,9.53
2023-02-19T04:30:22.880Z,9.51
2023-02-19T04:33:25.653Z,9.40
2023-02-19T04:36:28.663Z,9.41
2023-02-19T04:39:31.638Z,9.47
2023-02-19T04:42:34.607Z,9.33
2023-02-19T04:45:38.362Z,9.26
2023-02-19T04:48:43.121Z,9.21
2023-02-19T04:51:45.813Z,9.39
2023-02-19T04:54:50.825Z,9.28
2023-02-19T04:57:53.362Z,9.03
2023-02-19T05:00:56.516Z,9.00
2023-02-19T05:03:59.227Z,9.01
2023-02-19T05:07:02.098Z,9.04
2023-02-19T05:10:04.963Z,9.32
2023-02-19T05:13:09.730Z,9.16
2023-02-19T05:16:16.147Z,9.20
2023-02-19T05:19:19.232Z,9.52
2023-02-19T05:22:21.957Z,9.39
2023-02-19T05:25:26.006Z,9.42
2023-02-19T05:28:29.037Z,9.62
2023-02-19T05:31:33.846Z,9.54
2023-02-19T05:34:36.614Z,9.47
2023-02-19T05:37:39.461Z,9.57
2023-02-19T05:40:42.487Z,9.72
2023-02-19T05:43:47.124Z,9.65
2023-02-19T05:46:52.004Z,9.75
2023-02-19T05:49:55.983Z,9.76
2023-02-19T05:53:02.520Z,9.69
2023-02-19T05:56:17.857Z,9.76
2023-02-19T05:59:22.955Z,9.70
2023-02-19T06:02:25.933Z,9.69
2023-02-19T06:05:28.880Z,9.81
2023-02-19T06:08:31.500Z,9.73
2023-02-19T06:11:35.684Z,9.94
2023-02-19T06:14:38.373Z,10.08
2023-02-19T06:17:41.253Z,10.04
2023-02-19T06:20:43.834Z,9.86
2023-02-19T06:23:47.329Z,9.84
2023-02-19T06:26:50.171Z,9.92
2023-02-19T06:29:53.193Z,9.70
2023-02-19T06:32:56.266Z,9.62
2023-02-19T06:36:04.311Z,9.52
2023-02-19T06:39:07.255Z,9.59
2023-02-19T06:42:10.454Z,9.67
2023-02-19T06:45:12.970Z,9.87
2023-02-19T06:48:16.160Z,9.86
2023-02-19T06:51:22.674Z,9.88
2023-02-19T06:54:26.079Z,9.92
2023-02-19T06:57:28.715Z,9.94
2023-02-19T07:00:31.708Z,9.87
2023-02-19T07:03:34.317Z,9.81
2023-02-19T07:06:38.368Z,9.92
2023-02-19T07:09:41.234Z,9.68
2023-02-19T07:12:44.462Z,9.76
2023-02-19T07:15:47.180Z,9.66
2023-02-19T07:18:50.180Z,9.76
2023-02-19T07:21:53.062Z,9.87
2023-02-19T07:24:56.117Z,9.85
2023-02-19T07:27:59.274Z,9.94
2023-02-19T07:31:04.542Z,10.09
2023-02-19T07:34:07.393Z,10.14
2023-02-19T07:37:11.033Z,10.20
2023-02-19T07:40:13.757Z,10.21
2023-02-19T07:43:16.662Z,10.33
2023-02-19T07:46:19.941Z,10.52
2023-02-19T07:49:23.328Z,10.76
2023-02-19T07:52:26.214Z,10.91
2023-02-19T07:55:29.135Z,10.76
2023-02-19T07:58:33.213Z,10.77
2023-02-19T08:01:54.951Z,10.99
2023-02-19T08:04:58.929Z,10.98
2023-02-19T08:08:01.516Z,10.90
2023-02-19T08:11:25.132Z,10.89
2023-02-19T08:14:28.572Z,10.50
2023-02-19T08:17:31.543Z,10.55
2023-02-19T08:20:34.200Z,10.67
2023-02-19T08:23:37.729Z,10.58
2023-02-19T08:26:40.331Z,10.25
2023-02-19T08:29:43.174Z,10.23
2023-02-19T08:32:45.985Z,10.02
2023-02-19T08:35:48.893Z,9.91
2023-02-19T08:38:51.659Z,9.86
2023-02-19T08:41:58.155Z,9.81
2023-02-19T08:45:00.737Z,9.61
2023-02-19T08:48:03.955Z,9.36
2023-02-19T08:51:10.020Z,9.34
2023-02-19T08:54:13.294Z,9.59
2023-02-19T08:57:16.192Z,9.64
2023-02-19T09:00:19.572Z,9.53
2023-02-19T09:03:22.170Z,9.50
2023-02-19T09:06:25.244Z,9.38
2023-02-19T09:09:27.952Z,9.22
2023-02-19T09:12:31.060Z,9.29
2023-02-19T09:15:34.165Z,9.10
2023-02-19T09:18:37.969Z,9.08
2023-02-19T09:21:40.539Z,9.09
2023-02-19T09:24:44.065Z,8.89
2023-02-19T09:27:47.156Z,8.94
2023-02-19T09:30:50.422Z,8.97
2023-02-19T09:33:52.950Z,9.12
2023-02-19T09:36:55.913Z,9.20
2023-02-19T09:39:58.748Z,9.22
2023-02-19T09:43:05.492Z,9.44
2023-02-19T09:46:21.217Z,9.52
2023-02-19T09:49:37.523Z,9.75
2023-02-19T09:52:50.219Z,9.84
2023-02-19T09:55:53.673Z,10.10
2023-02-19T09:58:59.523Z,10.47
2023-02-19T10:02:24.829Z,10.72
2023-02-19T10:05:28.325Z,10.84
2023-02-19T10:08:35.692Z,11.58
2023-02-19T10:11:39.281Z,11.88
2023-02-19T10:14:47.879Z,12.26
2023-02-19T10:17:51.401Z,12.47
2023-02-19T10:20:54.837Z,12.80
2023-02-19T10:24:02.749Z,13.11
2023-02-19T10:27:11.444Z,13.46
2023-02-19T10:30:24.864Z,13.69
2023-02-19T10:33:28.623Z,13.74
2023-02-19T10:36:42.557Z,13.53
2023-02-19T10:39:50.446Z,13.31
2023-02-19T10:42:58.918Z,12.89
2023-02-19T10:46:04.948Z,13.26
2023-02-19T10:49:19.794Z,13.44
2023-02-19T10:52:34.095Z,13.33
2023-02-19T10:55:38.505Z,13.47
2023-02-19T10:58:44.859Z,13.56
2023-02-19T11:02:15.707Z,13.80
2023-02-19T11:05:20.101Z,14.39
2023-02-19T11:08:24.192Z,15.63
2023-02-19T11:11:39.838Z,16.21
2023-02-19T11:14:44.318Z,15.77
2023-02-19T11:17:59.670Z,15.06
2023-02-19T11:21:04.919Z,14.44
2023-02-19T11:24:25.202Z,14.82
2023-02-19T11:27:28.315Z,14.41
2023-02-19T11:30:33.301Z,14.72
2023-02-19T11:33:44.705Z,15.11
2023-02-19T11:37:13.582Z,15.36
2023-02-19T11:40:16.811Z,15.19
2023-02-19T11:43:47.358Z,14.89
2023-02-19T11:47:15.516Z,14.74
2023-02-19T11:50:27.043Z,14.75
2023-02-19T11:53:33.638Z,14.77
2023-02-19T11:56:41.733Z,14.59
2023-02-19T12:00:00.584Z,14.43
2023-02-19T12:03:29.502Z,14.26
2023-02-19T12:06:55.546Z,14.20
2023-02-19T12:10:20.481Z,14.58
2023-02-19T12:13:42.188Z,14.59
2023-02-19T12:16:47.793Z,14.30
2023-02-19T12:20:09.670Z,14.47
2023-02-19T12:23:51.052Z,14.44
2023-02-19T12:27:17.154Z,14.10
2023-02-19T12:30:48.337Z,14.13
2023-02-19T12:34:15.657Z,14.23
2023-02-19T12:37:24.576Z,14.18
2023-02-19T12:40:41.401Z,14.12
2023-02-19T12:44:13.353Z,14.33
2023-02-19T12:47:21.540Z,14.42
2023-02-19T12:50:27.603Z,14.38
2023-02-19T12:53:39.525Z,13.91
2023-02-19T12:56:57.093Z,12.64
2023-02-19T13:00:07.568Z,12.52
2023-02-19T13:03:41.578Z,12.14
2023-02-19T13:06:58.531Z,11.91
2023-02-19T13:10:36.880Z,11.97
2023-02-19T13:13:49.492Z,11.78
2023-02-19T13:17:01.043Z,11.98
2023-02-19T13:20:22.473Z,12.24
2023-02-19T13:23:59.661Z,12.25
2023-02-19T13:27:17.577Z,12.09
2023-02-19T13:30:51.059Z,12.29
2023-02-19T13:34:09.879Z,11.97
2023-02-19T13:37:14.902Z,11.84
2023-02-19T13:40:35.497Z,11.58
2023-02-19T13:43:39.147Z,11.05
2023-02-19T13:46:44.077Z,11.03
2023-02-19T13:49:51.796Z,11.09
2023-02-19T13:52:56.656Z,10.68
2023-02-19T13:56:00.116Z,10.40
2023-02-19T13:59:23.894Z,10.22
2023-02-19T14:02:35.294Z,10.31
2023-02-19T14:06:09.750Z,10.27
2023-02-19T14:09:37.250Z,10.14
2023-02-19T14:12:40.420Z,10.19
2023-02-19T14:15:49.006Z,10.24
2023-02-19T14:18:52.814Z,10.28
2023-02-19T14:21:55.973Z,10.35
2023-02-19T14:25:00.559Z,10.42
2023-02-19T14:28:06.254Z,10.51
2023-02-19T14:31:18.791Z,10.55
2023-02-19T14:34:26.960Z,10.58
2023-02-19T14:37:32.609Z,10.54
2023-02-19T14:40:39.543Z,10.55
2023-02-19T14:43:45.150Z,10.65
2023-02-19T14:46:53.549Z,10.68
2023-02-19T14:50:25.799Z,10.73
2023-02-19T14:53:29.994Z,10.70
2023-02-19T14:56:35.582Z,10.83
2023-02-19T14:59:38.514Z,10.94
2023-02-19T15:02:43.181Z,10.66
2023-02-19T15:05:46.512Z,10.52
2023-02-19T15:08:53.454Z,10.32
2023-02-19T15:11:57.880Z,10.24
2023-02-19T15:15:04.578Z,10.07
2023-02-19T15:18:07.695Z,10.06
2023-02-19T15:21:28.594Z,9.83
2023-02-19T15:24:31.923Z,9.80
2023-02-19T15:27:35.528Z,9.81
2023-02-19T15:30:39.994Z,9.76
2023-02-19T15:33:51.655Z,9.76
2023-02-19T15:37:00.269Z,9.91
2023-02-19T15:40:07.754Z,9.66
2023-02-19T15:43:23.495Z,9.65
2023-02-19T15:46:26.982Z,9.60
2023-02-19T15:49:46.716Z,9.49
2023-02-19T15:53:18.221Z,9.55
2023-02-19T15:56:29.480Z,9.46
2023-02-19T15:59:47.989Z,9.42
2023-02-19T16:02:51.342Z,9.54
2023-02-19T16:06:21.755Z,9.40
2023-02-19T16:09:29.926Z,9.37
2023-02-19T16:12:34.020Z,9.31
2023-02-19T16:15:39.330Z,9.29
2023-02-19T16:18:48.005Z,9.28
2023-02-19T16:21:52.536Z,9.23
2023-02-19T16:24:58.974Z,9.32
2023-02-19T16:28:13.901Z,9.37
2023-02-19T16:31:21.583Z,9.26
2023-02-19T16:34:42.314Z,9.19
2023-02-19T16:38:03.433Z,9.13
2023-02-19T16:41:13.949Z,8.83
2023-02-19T16:44:35.620Z,8.51
2023-02-19T16:47:41.570Z,8.20
2023-02-19T16:50:46.288Z,8.21
2023-02-19T16:53:49.125Z,8.00
2023-02-19T16:56:51.931Z,8.00
2023-02-19T16:59:54.755Z,8.02
2023-02-19T17:03:02.999Z,8.08
2023-02-19T17:06:05.978Z,8.03
2023-02-19T17:09:09.702Z,7.99
2023-02-19T17:12:15.129Z,7.84
2023-02-19T17:15:18.795Z,7.79
2023-02-19T17:18:22.220Z,7.72
2023-02-19T17:21:31.876Z,7.67
2023-02-19T17:24:34.843Z,7.68
2023-02-19T17:27:38.445Z,7.67
2023-02-19T17:30:41.651Z,7.59
2023-02-19T17:33:44.964Z,7.53
2023-02-19T17:36:48.291Z,7.56
2023-02-19T17:39:52.209Z,7.54
2023-02-19T17:42:55.043Z,7.42
2023-02-19T17:45:58.218Z,7.41
2023-02-19T17:49:01.131Z,7.44
2023-02-19T17:52:04.963Z,7.42
2023-02-19T17:55:08.964Z,7.36
2023-02-19T17:58:13.713Z,7.38
2023-02-19T18:01:17.000Z,7.30
2023-02-19T18:04:20.765Z,7.41
2023-02-19T18:07:23.877Z,7.46
2023-02-19T18:10:27.970Z,7.47
2023-02-19T18:13:30.822Z,7.57
2023-02-19T18:16:33.983Z,7.54
2023-02-19T18:19:36.724Z,7.60
2023-02-19T18:22:42.367Z,7.62
2023-02-19T18:25:45.426Z,7.51
2023-02-19T18:28:48.703Z,7.61
2023-02-19T18:31:51.666Z,7.53
2023-02-19T18:34:58.768Z,7.50
2023-02-19T18:38:01.994Z,7.61
2023-02-19T18:41:11.905Z,7.52
2023-02-19T18:44:23.977Z,7.37
2023-02-19T18:47:27.671Z,7.39
2023-02-19T18:50:30.594Z,7.51
2023-02-19T18:53:33.803Z,7.49
2023-02-19T18:56:43.722Z,7.52
2023-02-19T18:59:47.711Z,7.43
2023-02-19T19:02:51.504Z,7.33
2023-02-19T19:05:55.337Z,7.17
2023-02-19T19:08:58.582Z,7.18
2023-02-19T19:12:02.429Z,7.14
2023-02-19T19:15:05.628Z,7.07
2023-02-19T19:18:09.039Z,7.23
2023-02-19T19:21:15.357Z,7.11
2023-02-19T19:24:18.709Z,7.08
2023-02-19T19:27:22.024Z,7.23
2023-02-19T19:30:25.688Z,7.11
2023-02-19T19:33:28.712Z,7.07
2023-02-19T19:36:32.255Z,7.00
2023-02-19T19:39:35.383Z,7.01
2023-02-19T19:42:39.187Z,7.12
2023-02-19T19:45:42.309Z,6.94
2023-02-19T19:48:47.164Z,6.91
2023-02-19T19:51:50.475Z,6.90
2023-02-19T19:54:55.026Z,6.90
2023-02-19T19:57:57.881Z,6.88
2023-02-19T20:01:02.282Z,6.85
2023-02-19T20:04:06.148Z,6.82
2023-02-19T20:07:09.874Z,6.85
2023-02-19T20:10:14.452Z,6.83
2023-02-19T20:13:18.959Z,6.82
2023-02-19T20:16:28.514Z,6.93
2023-02-19T20:19:31.200Z,6.79
2023-02-19T20:22:36.371Z,6.82
2023-02-19T20:25:39.245Z,6.89
2023-02-19T20:28:45.200Z,6.94
2023-02-19T20:31:50.266Z,6.77
2023-02-19T20:34:53.588Z,6.74
2023-02-19T20:37:56.481Z,6.86
2023-02-19T20:40:59.820Z,6.76
2023-02-19T20:44:03.295Z,6.74
2023-02-19T20:47:06.495Z,6.64
2023-02-19T20:50:10.039Z,6.61
2023-02-19T20:53:13.783Z,6.47
2023-02-19T20:56:16.663Z,6.36
2023-02-19T20:59:22.258Z,6.32
2023-02-19T21:02:29.376Z,6.37
2023-02-19T21:05:32.637Z,6.14
2023-02-19T21:08:36.511Z,6.07
2023-02-19T21:11:42.911Z,6.11
2023-02-19T21:14:45.833Z,6.02
2023-02-19T21:17:49.516Z,5.88
2023-02-19T21:20:52.410Z,5.76
2023-02-19T21:23:57.339Z,5.71
2023-02-19T21:27:00.582Z,5.64
2023-02-19T21:30:05.231Z,5.61
2023-02-19T21:33:10.017Z,5.43
2023-02-19T21:36:21.526Z,5.21
2023-02-19T21:39:27.482Z,5.15
2023-02-19T21:42:30.477Z,5.11
2023-02-19T21:45:33.350Z,4.98
2023-02-19T21:48:36.240Z,4.92
2023-02-19T21:51:41.834Z,4.98
2023-02-19T21:54:44.895Z,5.02
2023-02-19T21:57:47.537Z,4.94
2023-02-19T22:00:50.758Z,4.74
2023-02-19T22:03:54.942Z,4.69
2023-02-19T22:06:57.685Z,4.68
2023-02-19T22:10:00.660Z,4.59
2023-02-19T22:13:04.288Z,4.67
2023-02-19T22:16:07.646Z,4.58
2023-02-19T22:19:12.121Z,4.58
2023-02-19T22:22:15.279Z,4.66
2023-02-19T22:25:17.803Z,4.56
2023-02-19T22:28:20.696Z,4.56
2023-02-19T22:31:24.723Z,4.41
2023-02-19T22:34:27.703Z,4.40
2023-02-19T22:37:30.201Z,4.33
2023-02-19T22:40:33.084Z,4.27
2023-02-19T22:43:35.751Z,4.18
2023-02-19T22:46:38.849Z,4.15
2023-02-19T22:49:43.592Z,4.21
2023-02-19T22:52:46.767Z,4.23
2023-02-19T22:55:49.480Z,4.17
2023-02-19T22:58:53.563Z,4.17
2023-02-19T23:01:57.368Z,4.24
2023-02-19T23:05:01.468Z,4.17
2023-02-19T23:08:04.419Z,4.09
2023-02-19T23:11:07.412Z,4.21
2023-02-19T23:14:10.010Z,4.06
2023-02-19T23:17:13.021Z,4.06
2023-02-19T23:20:15.725Z,3.92
2023-02-19T23:23:18.849Z,4.01
2023-02-19T23:26:24.105Z,3.95
2023-02-19T23:29:28.074Z,3.87
2023-02-19T23:32:30.707Z,3.82
2023-02-19T23:35:33.640Z,3.85
2023-02-19T23:38:36.410Z,3.77
2023-02-19T23:41:46.154Z,3.82
2023-02-19T23:44:49.438Z,3.76
2023-02-19T23:47:52.358Z,3.61
2023-02-19T23:50:56.123Z,3.74
2023-02-19T23:53:59.216Z,3.83
2023-02-19T23:57:01.796Z,3.66
